Main page
METAR-TAF:

METAR-TAF

Airports :

Brno, Czech Republic

Brno–Tuřany Airport

latitude: 49-09N, longitude: 016-42E, elevation: 241 m

Current weather observation

The report was made 19 minutes ago, at 22:30 UTC
Wind 3 kt from the East/Northeast
Temperature 8°C
Humidity 61%
Pressure 1019 hPa
Visibility 10 km or more
no clouds below 1500 m and no cumulonimbus

METAR: LKTB 262230Z 07003KT CAVOK 08/01 Q1019 NOSIG

Time: 00:49 (22:49 UTC)

Forecast

The report was made 5 hours and 49 minutes ago, at 17:00 UTC
Forecast valid from 26 at 18 UTC to 28 at 00 UTC
Wind 6 kt from the North/Northwest
Visibility 10 km or more
no clouds below 1500 m and no cumulonimbus
Becoming
from 27 at 02 UTC to 27 at 04 UTC
Wind 2 kt from variable directions
Becoming
from 27 at 08 UTC to 27 at 10 UTC
Wind 8 kt from the South/Southeast
Temporary
from 27 at 13 UTC to 27 at 17 UTC
Wind 10 kt from the South/Southeast with gusts up to 22 kt

TAF: LKTB 261700Z 2618/2800 33006KT CAVOK BECMG 2702/2704 VRB02KT BECMG 2708/2710 16008KT TEMPO 2713/2717 16010G22KT

Weather observations and forecasts of more than 4000 airports (METAR and TAF reports).

The available stations are represented by yellow and red dots on the map.

Hover mouse over dot to see the name of the station.

Then click to see weather observations and forecasts.

To change the map : click on the green buttons with a black cross to zoom in, on the green button with a dash to zoom out, or on the green arrows for adjacent maps.


METAR-TAF: